Etusivu
METAR-TAF:

METAR-TAF

Lentoasemat :

A.L. Mangham Jr. Regional Airport

Nacogdoches, Texas, Yhdysvallat

Leveyspiiri: 31-35N, Pituuspiiri: 094-43W, korkeus merenpinnasta: 108 m

Tämänhetkinen sää

Tämä raportti tehtiin 27 minuuttia sitten, kello 17.15 UTC
Tuuli 12 kn etelästä/lounaasta puuskistuen 16 kn:hen
Lämpötila 29°C
Kosteus 84%
Ilmanpaine 1008 hPa
Näkyvyys: 6.4 km
Muutamia pilviä 2400 ft:n korkeudessa
usvaa

METAR: KOCH 261715Z AUTO 21012G16KT 4SM HZ FEW024 29/26 A2976 RMK AO2

Aika: 12:42 (17:42 UTC)


TAF: puuttuu

Säähavainnot ja -ennusteet yli 4000 lentoasemalta (METAR- ja TAF-raportit).

Käytössä olevat sääasemat on merkitty karttaan keltaisilla ja punaisilla pisteillä.

Aseta hiiri pisteen päälle nähdäksesi sääaseman nimen.

Klikkaa sitten nähdäksesi säähavainnot ja -ennusteet.

Kartan vaihtaminen: klikkaa mustalla rastilla varustettuja vihreitä pisteitä, niin voit zoomata sisään; viivalla varustettua vihreää pistettä, niin voit zoomata ulos tai vihreitä nuolia, niin pääset viereisille kartoille.


METAR-TAF: